sensor_id;sensor_type;location;lat;lon;timestamp;P1;durP1;ratioP1;P2;durP2;ratioP2
79173;SDS011;68599;49.142;9.124;2023-11-19T00:02:10;4.10;;;1.90;;
79173;SDS011;68599;49.142;9.124;2023-11-19T00:04:37;3.50;;;2.00;;
79173;SDS011;68599;49.142;9.124;2023-11-19T00:07:08;4.00;;;1.70;;
79173;SDS011;68599;49.142;9.124;2023-11-19T00:09:40;3.60;;;2.00;;
79173;SDS011;68599;49.142;9.124;2023-11-19T00:12:07;2.60;;;1.70;;
79173;SDS011;68599;49.142;9.124;2023-11-19T00:14:34;2.90;;;1.60;;
79173;SDS011;68599;49.142;9.124;2023-11-19T00:17:01;2.60;;;1.70;;
79173;SDS011;68599;49.142;9.124;2023-11-19T00:19:27;3.40;;;1.90;;
79173;SDS011;68599;49.142;9.124;2023-11-19T00:21:54;3.60;;;2.40;;
79173;SDS011;68599;49.142;9.124;2023-11-19T00:24:21;4.50;;;2.10;;
79173;SDS011;68599;49.142;9.124;2023-11-19T00:26:47;5.00;;;3.00;;
79173;SDS011;68599;49.142;9.124;2023-11-19T00:29:14;4.10;;;2.40;;
79173;SDS011;68599;49.142;9.124;2023-11-19T00:31:40;8.80;;;3.10;;
79173;SDS011;68599;49.142;9.124;2023-11-19T00:34:07;4.40;;;2.30;;
79173;SDS011;68599;49.142;9.124;2023-11-19T00:36:34;5.30;;;2.90;;
79173;SDS011;68599;49.142;9.124;2023-11-19T00:39:00;4.10;;;2.10;;
79173;SDS011;68599;49.142;9.124;2023-11-19T00:41:27;3.60;;;2.40;;
79173;SDS011;68599;49.142;9.124;2023-11-19T00:43:53;3.10;;;1.90;;
79173;SDS011;68599;49.142;9.124;2023-11-19T00:46:20;2.20;;;1.50;;
79173;SDS011;68599;49.142;9.124;2023-11-19T00:48:47;3.90;;;2.10;;
79173;SDS011;68599;49.142;9.124;2023-11-19T00:51:13;3.90;;;1.90;;
79173;SDS011;68599;49.142;9.124;2023-11-19T00:53:40;2.60;;;1.40;;
79173;SDS011;68599;49.142;9.124;2023-11-19T00:56:07;4.10;;;1.70;;
79173;SDS011;68599;49.142;9.124;2023-11-19T00:58:34;2.80;;;1.70;;
79173;SDS011;68599;49.142;9.124;2023-11-19T01:01:00;3.40;;;1.90;;
79173;SDS011;68599;49.142;9.124;2023-11-19T01:03:27;4.40;;;1.70;;
79173;SDS011;68599;49.142;9.124;2023-11-19T01:05:54;3.70;;;2.00;;
79173;SDS011;68599;49.142;9.124;2023-11-19T01:08:20;6.10;;;2.30;;
79173;SDS011;68599;49.142;9.124;2023-11-19T01:10:47;3.40;;;1.90;;
79173;SDS011;68599;49.142;9.124;2023-11-19T01:13:14;3.70;;;2.00;;
79173;SDS011;68599;49.142;9.124;2023-11-19T01:15:40;5.40;;;2.80;;
79173;SDS011;68599;49.142;9.124;2023-11-19T01:18:07;4.00;;;2.20;;
79173;SDS011;68599;49.142;9.124;2023-11-19T01:20:36;4.20;;;2.40;;
79173;SDS011;68599;49.142;9.124;2023-11-19T01:23:03;4.60;;;2.70;;
79173;SDS011;68599;49.142;9.124;2023-11-19T01:25:30;4.80;;;2.50;;
79173;SDS011;68599;49.142;9.124;2023-11-19T01:27:57;4.70;;;2.20;;
79173;SDS011;68599;49.142;9.124;2023-11-19T01:30:25;3.50;;;2.30;;
79173;SDS011;68599;49.142;9.124;2023-11-19T01:32:52;4.20;;;2.40;;
79173;SDS011;68599;49.142;9.124;2023-11-19T01:35:18;4.20;;;2.10;;
79173;SDS011;68599;49.142;9.124;2023-11-19T01:37:45;5.20;;;2.10;;
79173;SDS011;68599;49.142;9.124;2023-11-19T01:40:12;5.20;;;2.40;;
79173;SDS011;68599;49.142;9.124;2023-11-19T01:42:38;3.30;;;2.10;;
79173;SDS011;68599;49.142;9.124;2023-11-19T01:45:07;4.90;;;2.90;;
79173;SDS011;68599;49.142;9.124;2023-11-19T01:47:36;6.70;;;3.80;;
79173;SDS011;68599;49.142;9.124;2023-11-19T01:50:04;13.60;;;7.10;;
79173;SDS011;68599;49.142;9.124;2023-11-19T01:52:34;16.40;;;8.70;;
79173;SDS011;68599;49.142;9.124;2023-11-19T01:55:06;9.80;;;4.30;;
79173;SDS011;68599;49.142;9.124;2023-11-19T01:57:36;5.20;;;2.80;;
79173;SDS011;68599;49.142;9.124;2023-11-19T02:00:05;3.20;;;2.00;;
79173;SDS011;68599;49.142;9.124;2023-11-19T02:02:32;4.60;;;2.60;;
79173;SDS011;68599;49.142;9.124;2023-11-19T02:05:00;5.10;;;2.50;;
79173;SDS011;68599;49.142;9.124;2023-11-19T02:07:26;3.40;;;2.30;;
79173;SDS011;68599;49.142;9.124;2023-11-19T02:09:53;3.80;;;2.30;;
79173;SDS011;68599;49.142;9.124;2023-11-19T02:12:19;3.80;;;2.30;;
79173;SDS011;68599;49.142;9.124;2023-11-19T02:14:47;5.50;;;2.70;;
79173;SDS011;68599;49.142;9.124;2023-11-19T02:17:26;4.80;;;2.70;;
79173;SDS011;68599;49.142;9.124;2023-11-19T02:19:54;4.60;;;2.60;;
79173;SDS011;68599;49.142;9.124;2023-11-19T02:22:21;4.70;;;2.60;;
79173;SDS011;68599;49.142;9.124;2023-11-19T02:27:23;4.60;;;2.40;;
79173;SDS011;68599;49.142;9.124;2023-11-19T02:29:53;4.70;;;2.50;;
79173;SDS011;68599;49.142;9.124;2023-11-19T02:32:20;4.90;;;2.40;;
79173;SDS011;68599;49.142;9.124;2023-11-19T02:34:46;3.50;;;2.10;;
79173;SDS011;68599;49.142;9.124;2023-11-19T02:37:13;4.30;;;2.20;;
79173;SDS011;68599;49.142;9.124;2023-11-19T02:39:41;3.80;;;2.20;;
79173;SDS011;68599;49.142;9.124;2023-11-19T02:42:08;3.90;;;2.40;;
79173;SDS011;68599;49.142;9.124;2023-11-19T02:44:34;3.60;;;2.20;;
79173;SDS011;68599;49.142;9.124;2023-11-19T02:47:01;4.40;;;2.80;;
79173;SDS011;68599;49.142;9.124;2023-11-19T02:49:29;4.30;;;2.80;;
79173;SDS011;68599;49.142;9.124;2023-11-19T02:51:56;4.00;;;2.20;;
79173;SDS011;68599;49.142;9.124;2023-11-19T02:54:22;3.30;;;2.20;;
79173;SDS011;68599;49.142;9.124;2023-11-19T02:56:53;5.30;;;2.80;;
79173;SDS011;68599;49.142;9.124;2023-11-19T02:59:25;4.90;;;2.90;;
79173;SDS011;68599;49.142;9.124;2023-11-19T03:02:05;3.80;;;2.20;;
79173;SDS011;68599;49.142;9.124;2023-11-19T03:04:38;3.80;;;2.50;;
79173;SDS011;68599;49.142;9.124;2023-11-19T03:07:06;3.60;;;1.90;;
79173;SDS011;68599;49.142;9.124;2023-11-19T03:09:36;4.20;;;2.60;;
79173;SDS011;68599;49.142;9.124;2023-11-19T03:12:03;3.10;;;2.00;;
79173;SDS011;68599;49.142;9.124;2023-11-19T03:14:35;4.80;;;2.80;;
79173;SDS011;68599;49.142;9.124;2023-11-19T03:17:02;4.60;;;2.50;;
79173;SDS011;68599;49.142;9.124;2023-11-19T03:19:30;3.20;;;1.80;;
79173;SDS011;68599;49.142;9.124;2023-11-19T03:21:56;4.00;;;1.80;;
79173;SDS011;68599;49.142;9.124;2023-11-19T03:24:23;4.30;;;2.50;;
79173;SDS011;68599;49.142;9.124;2023-11-19T03:26:51;4.90;;;2.40;;
79173;SDS011;68599;49.142;9.124;2023-11-19T03:29:18;3.70;;;2.10;;
79173;SDS011;68599;49.142;9.124;2023-11-19T03:31:44;2.40;;;1.60;;
79173;SDS011;68599;49.142;9.124;2023-11-19T03:34:11;3.00;;;2.10;;
79173;SDS011;68599;49.142;9.124;2023-11-19T03:36:38;1.70;;;1.00;;
79173;SDS011;68599;49.142;9.124;2023-11-19T03:39:04;4.50;;;2.60;;
79173;SDS011;68599;49.142;9.124;2023-11-19T03:41:31;4.60;;;2.80;;
79173;SDS011;68599;49.142;9.124;2023-11-19T03:44:01;3.40;;;2.00;;
79173;SDS011;68599;49.142;9.124;2023-11-19T03:46:27;4.60;;;2.70;;
79173;SDS011;68599;49.142;9.124;2023-11-19T03:48:56;4.00;;;2.40;;
79173;SDS011;68599;49.142;9.124;2023-11-19T03:51:23;3.80;;;2.10;;
79173;SDS011;68599;49.142;9.124;2023-11-19T03:53:49;2.30;;;1.20;;
79173;SDS011;68599;49.142;9.124;2023-11-19T03:56:16;1.90;;;1.00;;
79173;SDS011;68599;49.142;9.124;2023-11-19T03:58:43;3.50;;;1.90;;
79173;SDS011;68599;49.142;9.124;2023-11-19T04:01:12;2.60;;;1.50;;
79173;SDS011;68599;49.142;9.124;2023-11-19T04:03:42;1.90;;;1.20;;
79173;SDS011;68599;49.142;9.124;2023-11-19T04:06:12;3.10;;;1.90;;
79173;SDS011;68599;49.142;9.124;2023-11-19T04:08:38;3.90;;;2.10;;
79173;SDS011;68599;49.142;9.124;2023-11-19T04:11:05;2.30;;;0.80;;
79173;SDS011;68599;49.142;9.124;2023-11-19T04:13:32;2.90;;;1.60;;
79173;SDS011;68599;49.142;9.124;2023-11-19T04:15:58;2.50;;;1.40;;
79173;SDS011;68599;49.142;9.124;2023-11-19T04:18:25;2.70;;;1.80;;
79173;SDS011;68599;49.142;9.124;2023-11-19T04:20:52;2.70;;;1.70;;
79173;SDS011;68599;49.142;9.124;2023-11-19T04:23:18;2.80;;;1.40;;
79173;SDS011;68599;49.142;9.124;2023-11-19T04:25:45;2.30;;;1.50;;
79173;SDS011;68599;49.142;9.124;2023-11-19T04:28:12;1.10;;;0.70;;
79173;SDS011;68599;49.142;9.124;2023-11-19T04:30:39;3.00;;;1.50;;
79173;SDS011;68599;49.142;9.124;2023-11-19T04:33:05;3.60;;;1.50;;
79173;SDS011;68599;49.142;9.124;2023-11-19T04:35:32;2.30;;;1.00;;
79173;SDS011;68599;49.142;9.124;2023-11-19T04:37:58;1.90;;;1.20;;
79173;SDS011;68599;49.142;9.124;2023-11-19T04:40:25;1.60;;;1.00;;
79173;SDS011;68599;49.142;9.124;2023-11-19T04:42:52;1.40;;;0.70;;
79173;SDS011;68599;49.142;9.124;2023-11-19T04:45:19;1.20;;;0.50;;
79173;SDS011;68599;49.142;9.124;2023-11-19T04:47:46;0.80;;;0.30;;
79173;SDS011;68599;49.142;9.124;2023-11-19T04:50:13;0.60;;;0.20;;
79173;SDS011;68599;49.142;9.124;2023-11-19T04:52:40;0.40;;;0.20;;
79173;SDS011;68599;49.142;9.124;2023-11-19T04:55:07;3.20;;;0.20;;
79173;SDS011;68599;49.142;9.124;2023-11-19T04:57:38;0.20;;;0.10;;
79173;SDS011;68599;49.142;9.124;2023-11-19T05:00:05;1.00;;;0.10;;
79173;SDS011;68599;49.142;9.124;2023-11-19T05:02:42;0.20;;;0.00;;
79173;SDS011;68599;49.142;9.124;2023-11-19T05:05:09;0.00;;;0.00;;
79173;SDS011;68599;49.142;9.124;2023-11-19T05:07:36;0.10;;;0.00;;
79173;SDS011;68599;49.142;9.124;2023-11-19T05:10:03;0.50;;;0.10;;
79173;SDS011;68599;49.142;9.124;2023-11-19T05:12:31;0.40;;;0.20;;
79173;SDS011;68599;49.142;9.124;2023-11-19T05:14:58;1.40;;;0.70;;
79173;SDS011;68599;49.142;9.124;2023-11-19T05:17:24;0.30;;;0.10;;
79173;SDS011;68599;49.142;9.124;2023-11-19T05:19:51;0.30;;;0.00;;
79173;SDS011;68599;49.142;9.124;2023-11-19T05:22:18;0.40;;;0.20;;
79173;SDS011;68599;49.142;9.124;2023-11-19T05:24:47;1.00;;;0.00;;
79173;SDS011;68599;49.142;9.124;2023-11-19T05:27:14;0.20;;;0.10;;
79173;SDS011;68599;49.142;9.124;2023-11-19T05:29:41;0.10;;;0.00;;
79173;SDS011;68599;49.142;9.124;2023-11-19T05:32:09;0.40;;;0.20;;
79173;SDS011;68599;49.142;9.124;2023-11-19T05:34:36;1.10;;;0.20;;
79173;SDS011;68599;49.142;9.124;2023-11-19T05:37:16;0.20;;;0.10;;
79173;SDS011;68599;49.142;9.124;2023-11-19T05:39:44;0.20;;;0.10;;
79173;SDS011;68599;49.142;9.124;2023-11-19T05:42:11;0.70;;;0.20;;
79173;SDS011;68599;49.142;9.124;2023-11-19T05:44:37;0.20;;;0.10;;
79173;SDS011;68599;49.142;9.124;2023-11-19T05:47:07;0.40;;;0.10;;
79173;SDS011;68599;49.142;9.124;2023-11-19T05:49:34;0.30;;;0.10;;
79173;SDS011;68599;49.142;9.124;2023-11-19T05:52:00;1.90;;;0.20;;
79173;SDS011;68599;49.142;9.124;2023-11-19T05:54:29;0.30;;;0.10;;
79173;SDS011;68599;49.142;9.124;2023-11-19T05:56:58;0.90;;;0.30;;
79173;SDS011;68599;49.142;9.124;2023-11-19T05:59:24;0.20;;;0.10;;
79173;SDS011;68599;49.142;9.124;2023-11-19T06:01:51;0.30;;;0.10;;
79173;SDS011;68599;49.142;9.124;2023-11-19T06:04:17;0.60;;;0.20;;
79173;SDS011;68599;49.142;9.124;2023-11-19T06:06:44;0.20;;;0.10;;
79173;SDS011;68599;49.142;9.124;2023-11-19T06:09:11;0.70;;;0.20;;
79173;SDS011;68599;49.142;9.124;2023-11-19T06:11:40;1.00;;;0.30;;
79173;SDS011;68599;49.142;9.124;2023-11-19T06:14:06;0.50;;;0.30;;
79173;SDS011;68599;49.142;9.124;2023-11-19T06:19:00;0.30;;;0.10;;
79173;SDS011;68599;49.142;9.124;2023-11-19T06:21:27;0.30;;;0.10;;
79173;SDS011;68599;49.142;9.124;2023-11-19T06:23:53;1.30;;;0.20;;
79173;SDS011;68599;49.142;9.124;2023-11-19T06:26:20;0.40;;;0.20;;
79173;SDS011;68599;49.142;9.124;2023-11-19T06:28:48;0.40;;;0.20;;
79173;SDS011;68599;49.142;9.124;2023-11-19T06:31:15;0.40;;;0.10;;
79173;SDS011;68599;49.142;9.124;2023-11-19T06:33:42;1.20;;;0.30;;
79173;SDS011;68599;49.142;9.124;2023-11-19T06:36:09;0.70;;;0.10;;
79173;SDS011;68599;49.142;9.124;2023-11-19T06:38:37;0.20;;;0.10;;
79173;SDS011;68599;49.142;9.124;2023-11-19T06:41:06;1.20;;;0.40;;
79173;SDS011;68599;49.142;9.124;2023-11-19T06:43:34;0.50;;;0.30;;
79173;SDS011;68599;49.142;9.124;2023-11-19T06:46:06;0.70;;;0.40;;
79173;SDS011;68599;49.142;9.124;2023-11-19T06:48:41;0.60;;;0.20;;
79173;SDS011;68599;49.142;9.124;2023-11-19T06:51:10;0.40;;;0.10;;
79173;SDS011;68599;49.142;9.124;2023-11-19T06:53:37;0.10;;;0.00;;
79173;SDS011;68599;49.142;9.124;2023-11-19T06:56:10;1.40;;;0.20;;
79173;SDS011;68599;49.142;9.124;2023-11-19T06:58:47;0.50;;;0.30;;
79173;SDS011;68599;49.142;9.124;2023-11-19T07:01:15;0.70;;;0.30;;
79173;SDS011;68599;49.142;9.124;2023-11-19T07:03:42;0.20;;;0.10;;
79173;SDS011;68599;49.142;9.124;2023-11-19T07:06:09;0.40;;;0.10;;
79173;SDS011;68599;49.142;9.124;2023-11-19T07:08:36;1.00;;;0.40;;
79173;SDS011;68599;49.142;9.124;2023-11-19T07:11:05;0.40;;;0.10;;
79173;SDS011;68599;49.142;9.124;2023-11-19T07:13:32;0.30;;;0.10;;
79173;SDS011;68599;49.142;9.124;2023-11-19T07:15:59;0.20;;;0.10;;
79173;SDS011;68599;49.142;9.124;2023-11-19T07:18:26;0.40;;;0.20;;
79173;SDS011;68599;49.142;9.124;2023-11-19T07:20:53;0.20;;;0.10;;
79173;SDS011;68599;49.142;9.124;2023-11-19T07:23:20;0.50;;;0.20;;
79173;SDS011;68599;49.142;9.124;2023-11-19T07:25:48;1.50;;;0.40;;
79173;SDS011;68599;49.142;9.124;2023-11-19T07:28:16;0.50;;;0.10;;
79173;SDS011;68599;49.142;9.124;2023-11-19T07:30:43;0.60;;;0.10;;
79173;SDS011;68599;49.142;9.124;2023-11-19T07:33:10;0.20;;;0.10;;
79173;SDS011;68599;49.142;9.124;2023-11-19T07:35:37;0.90;;;0.30;;
79173;SDS011;68599;49.142;9.124;2023-11-19T07:38:04;0.20;;;0.00;;
79173;SDS011;68599;49.142;9.124;2023-11-19T07:40:30;1.30;;;0.80;;
79173;SDS011;68599;49.142;9.124;2023-11-19T07:42:57;0.40;;;0.10;;
79173;SDS011;68599;49.142;9.124;2023-11-19T07:45:23;0.70;;;0.10;;
79173;SDS011;68599;49.142;9.124;2023-11-19T07:47:50;1.50;;;0.40;;
79173;SDS011;68599;49.142;9.124;2023-11-19T07:50:17;2.10;;;0.50;;
79173;SDS011;68599;49.142;9.124;2023-11-19T07:52:46;0.30;;;0.10;;
79173;SDS011;68599;49.142;9.124;2023-11-19T07:55:13;1.30;;;0.20;;
79173;SDS011;68599;49.142;9.124;2023-11-19T07:57:40;1.00;;;0.10;;
79173;SDS011;68599;49.142;9.124;2023-11-19T08:00:06;0.20;;;0.10;;
79173;SDS011;68599;49.142;9.124;2023-11-19T08:02:39;1.30;;;0.10;;
79173;SDS011;68599;49.142;9.124;2023-11-19T08:05:06;0.40;;;0.20;;
79173;SDS011;68599;49.142;9.124;2023-11-19T08:07:34;0.20;;;0.10;;
79173;SDS011;68599;49.142;9.124;2023-11-19T08:10:00;0.10;;;0.10;;
79173;SDS011;68599;49.142;9.124;2023-11-19T08:12:27;0.10;;;0.10;;
79173;SDS011;68599;49.142;9.124;2023-11-19T08:14:53;0.60;;;0.30;;
79173;SDS011;68599;49.142;9.124;2023-11-19T08:17:20;0.50;;;0.10;;
79173;SDS011;68599;49.142;9.124;2023-11-19T08:19:49;0.60;;;0.30;;
79173;SDS011;68599;49.142;9.124;2023-11-19T08:22:17;0.60;;;0.30;;
79173;SDS011;68599;49.142;9.124;2023-11-19T08:24:43;0.60;;;0.30;;
79173;SDS011;68599;49.142;9.124;2023-11-19T08:27:10;0.40;;;0.30;;
79173;SDS011;68599;49.142;9.124;2023-11-19T08:29:37;0.50;;;0.30;;
79173;SDS011;68599;49.142;9.124;2023-11-19T08:32:03;0.90;;;0.20;;
79173;SDS011;68599;49.142;9.124;2023-11-19T08:34:30;0.70;;;0.20;;
79173;SDS011;68599;49.142;9.124;2023-11-19T08:36:57;0.80;;;0.30;;
79173;SDS011;68599;49.142;9.124;2023-11-19T08:39:24;0.20;;;0.10;;
79173;SDS011;68599;49.142;9.124;2023-11-19T08:41:50;2.70;;;0.40;;
79173;SDS011;68599;49.142;9.124;2023-11-19T08:44:17;1.30;;;0.30;;
79173;SDS011;68599;49.142;9.124;2023-11-19T08:46:47;0.80;;;0.20;;
79173;SDS011;68599;49.142;9.124;2023-11-19T08:49:16;0.70;;;0.30;;
79173;SDS011;68599;49.142;9.124;2023-11-19T08:51:43;1.80;;;0.20;;
79173;SDS011;68599;49.142;9.124;2023-11-19T08:54:11;0.20;;;0.00;;
79173;SDS011;68599;49.142;9.124;2023-11-19T08:56:39;1.10;;;0.20;;
79173;SDS011;68599;49.142;9.124;2023-11-19T08:59:06;0.70;;;0.30;;
79173;SDS011;68599;49.142;9.124;2023-11-19T09:01:32;0.60;;;0.20;;
79173;SDS011;68599;49.142;9.124;2023-11-19T09:03:59;0.40;;;0.20;;
79173;SDS011;68599;49.142;9.124;2023-11-19T09:06:26;0.40;;;0.20;;
79173;SDS011;68599;49.142;9.124;2023-11-19T09:08:53;2.10;;;0.90;;
79173;SDS011;68599;49.142;9.124;2023-11-19T09:11:24;1.90;;;0.50;;
79173;SDS011;68599;49.142;9.124;2023-11-19T09:16:17;1.40;;;0.40;;
79173;SDS011;68599;49.142;9.124;2023-11-19T09:18:44;0.60;;;0.30;;
79173;SDS011;68599;49.142;9.124;2023-11-19T09:21:11;1.30;;;0.50;;
79173;SDS011;68599;49.142;9.124;2023-11-19T09:23:38;1.50;;;0.70;;
79173;SDS011;68599;49.142;9.124;2023-11-19T09:26:06;1.80;;;0.60;;
79173;SDS011;68599;49.142;9.124;2023-11-19T09:28:36;0.90;;;0.60;;
79173;SDS011;68599;49.142;9.124;2023-11-19T09:31:03;0.90;;;0.70;;
79173;SDS011;68599;49.142;9.124;2023-11-19T09:33:39;1.40;;;1.30;;
79173;SDS011;68599;49.142;9.124;2023-11-19T09:36:06;1.10;;;0.90;;
79173;SDS011;68599;49.142;9.124;2023-11-19T09:38:33;1.40;;;0.70;;
79173;SDS011;68599;49.142;9.124;2023-11-19T09:40:59;1.50;;;0.80;;
79173;SDS011;68599;49.142;9.124;2023-11-19T09:43:28;0.70;;;0.40;;
79173;SDS011;68599;49.142;9.124;2023-11-19T09:45:55;1.50;;;0.70;;
79173;SDS011;68599;49.142;9.124;2023-11-19T09:48:24;1.10;;;0.60;;
79173;SDS011;68599;49.142;9.124;2023-11-19T09:50:51;1.80;;;0.80;;
79173;SDS011;68599;49.142;9.124;2023-11-19T09:53:18;1.80;;;0.90;;
79173;SDS011;68599;49.142;9.124;2023-11-19T09:55:46;0.60;;;0.50;;
79173;SDS011;68599;49.142;9.124;2023-11-19T09:58:13;0.70;;;0.40;;
79173;SDS011;68599;49.142;9.124;2023-11-19T10:00:41;0.60;;;0.40;;
79173;SDS011;68599;49.142;9.124;2023-11-19T10:03:08;1.60;;;0.70;;
79173;SDS011;68599;49.142;9.124;2023-11-19T10:05:39;1.10;;;0.70;;
79173;SDS011;68599;49.142;9.124;2023-11-19T10:08:07;2.10;;;1.10;;
79173;SDS011;68599;49.142;9.124;2023-11-19T10:10:37;1.80;;;1.00;;
79173;SDS011;68599;49.142;9.124;2023-11-19T10:13:04;1.20;;;0.80;;
79173;SDS011;68599;49.142;9.124;2023-11-19T10:15:33;1.30;;;0.70;;
79173;SDS011;68599;49.142;9.124;2023-11-19T10:18:04;0.90;;;0.80;;
79173;SDS011;68599;49.142;9.124;2023-11-19T10:20:35;1.40;;;0.80;;
79173;SDS011;68599;49.142;9.124;2023-11-19T10:23:03;1.00;;;0.80;;
79173;SDS011;68599;49.142;9.124;2023-11-19T10:25:30;1.50;;;1.40;;
79173;SDS011;68599;49.142;9.124;2023-11-19T10:27:57;1.50;;;1.20;;
79173;SDS011;68599;49.142;9.124;2023-11-19T10:30:24;1.70;;;0.90;;
79173;SDS011;68599;49.142;9.124;2023-11-19T10:35:29;2.60;;;0.90;;
79173;SDS011;68599;49.142;9.124;2023-11-19T10:37:55;1.70;;;1.00;;
79173;SDS011;68599;49.142;9.124;2023-11-19T10:40:29;1.00;;;0.90;;
79173;SDS011;68599;49.142;9.124;2023-11-19T10:43:06;2.10;;;1.20;;
79173;SDS011;68599;49.142;9.124;2023-11-19T10:45:37;2.70;;;1.20;;
79173;SDS011;68599;49.142;9.124;2023-11-19T10:48:05;3.50;;;2.30;;
79173;SDS011;68599;49.142;9.124;2023-11-19T10:50:37;2.20;;;1.00;;
79173;SDS011;68599;49.142;9.124;2023-11-19T10:53:09;1.70;;;1.00;;
79173;SDS011;68599;49.142;9.124;2023-11-19T10:55:37;1.50;;;1.40;;
79173;SDS011;68599;49.142;9.124;2023-11-19T10:58:05;1.70;;;0.90;;
79173;SDS011;68599;49.142;9.124;2023-11-19T11:00:56;2.60;;;1.10;;
79173;SDS011;68599;49.142;9.124;2023-11-19T11:03:27;1.80;;;0.80;;
79173;SDS011;68599;49.142;9.124;2023-11-19T11:05:57;2.00;;;1.20;;
79173;SDS011;68599;49.142;9.124;2023-11-19T11:08:24;1.30;;;1.10;;
79173;SDS011;68599;49.142;9.124;2023-11-19T11:10:54;1.10;;;0.90;;
79173;SDS011;68599;49.142;9.124;2023-11-19T11:13:24;1.50;;;0.80;;
79173;SDS011;68599;49.142;9.124;2023-11-19T11:15:51;2.20;;;1.10;;
79173;SDS011;68599;49.142;9.124;2023-11-19T11:18:21;2.90;;;1.50;;
79173;SDS011;68599;49.142;9.124;2023-11-19T11:20:48;2.20;;;1.60;;
79173;SDS011;68599;49.142;9.124;2023-11-19T11:29:04;1.30;;;0.70;;
79173;SDS011;68599;49.142;9.124;2023-11-19T11:31:37;1.00;;;0.70;;
79173;SDS011;68599;49.142;9.124;2023-11-19T11:39:57;1.70;;;1.20;;
79173;SDS011;68599;49.142;9.124;2023-11-19T11:45:03;1.80;;;0.90;;
79173;SDS011;68599;49.142;9.124;2023-11-19T11:50:23;1.70;;;1.00;;
79173;SDS011;68599;49.142;9.124;2023-11-19T11:57:55;1.40;;;0.70;;
79173;SDS011;68599;49.142;9.124;2023-11-19T12:00:32;1.70;;;0.70;;
79173;SDS011;68599;49.142;9.124;2023-11-19T12:03:04;1.10;;;0.70;;
79173;SDS011;68599;49.142;9.124;2023-11-19T12:05:38;2.90;;;0.70;;
79173;SDS011;68599;49.142;9.124;2023-11-19T12:08:09;2.10;;;1.00;;
79173;SDS011;68599;49.142;9.124;2023-11-19T12:10:51;1.70;;;0.90;;
79173;SDS011;68599;49.142;9.124;2023-11-19T12:13:26;2.10;;;1.50;;
79173;SDS011;68599;49.142;9.124;2023-11-19T12:16:10;1.70;;;0.80;;
79173;SDS011;68599;49.142;9.124;2023-11-19T12:18:38;1.20;;;0.90;;
79173;SDS011;68599;49.142;9.124;2023-11-19T12:21:06;1.30;;;0.80;;
79173;SDS011;68599;49.142;9.124;2023-11-19T12:23:33;1.30;;;0.80;;
79173;SDS011;68599;49.142;9.124;2023-11-19T12:26:00;2.50;;;1.80;;
79173;SDS011;68599;49.142;9.124;2023-11-19T12:28:27;1.40;;;1.00;;
79173;SDS011;68599;49.142;9.124;2023-11-19T12:30:54;2.20;;;0.90;;
79173;SDS011;68599;49.142;9.124;2023-11-19T12:33:36;2.00;;;1.40;;
79173;SDS011;68599;49.142;9.124;2023-11-19T12:36:04;3.60;;;0.90;;
79173;SDS011;68599;49.142;9.124;2023-11-19T12:38:32;1.00;;;0.70;;
79173;SDS011;68599;49.142;9.124;2023-11-19T12:43:31;2.10;;;0.60;;
79173;SDS011;68599;49.142;9.124;2023-11-19T12:45:58;1.90;;;0.60;;
79173;SDS011;68599;49.142;9.124;2023-11-19T12:48:24;1.70;;;0.70;;
79173;SDS011;68599;49.142;9.124;2023-11-19T12:53:26;1.60;;;0.80;;
79173;SDS011;68599;49.142;9.124;2023-11-19T12:55:53;3.20;;;1.40;;
79173;SDS011;68599;49.142;9.124;2023-11-19T12:58:28;0.90;;;0.60;;
79173;SDS011;68599;49.142;9.124;2023-11-19T13:01:03;1.10;;;0.80;;
79173;SDS011;68599;49.142;9.124;2023-11-19T13:03:32;0.90;;;0.50;;
79173;SDS011;68599;49.142;9.124;2023-11-19T13:06:10;1.10;;;0.40;;
79173;SDS011;68599;49.142;9.124;2023-11-19T13:08:42;1.60;;;0.70;;
79173;SDS011;68599;49.142;9.124;2023-11-19T13:11:11;1.90;;;0.50;;
79173;SDS011;68599;49.142;9.124;2023-11-19T13:16:27;1.10;;;0.40;;
79173;SDS011;68599;49.142;9.124;2023-11-19T13:18:54;0.60;;;0.30;;
79173;SDS011;68599;49.142;9.124;2023-11-19T13:21:21;1.10;;;0.50;;
79173;SDS011;68599;49.142;9.124;2023-11-19T13:23:48;2.20;;;0.60;;
79173;SDS011;68599;49.142;9.124;2023-11-19T13:26:15;1.60;;;0.40;;
79173;SDS011;68599;49.142;9.124;2023-11-19T13:31:08;1.00;;;0.40;;
79173;SDS011;68599;49.142;9.124;2023-11-19T13:33:37;1.90;;;0.50;;
79173;SDS011;68599;49.142;9.124;2023-11-19T13:41:04;1.90;;;0.40;;
79173;SDS011;68599;49.142;9.124;2023-11-19T13:43:31;1.80;;;0.70;;
79173;SDS011;68599;49.142;9.124;2023-11-19T13:45:58;0.60;;;0.20;;
79173;SDS011;68599;49.142;9.124;2023-11-19T13:48:25;1.00;;;0.30;;
79173;SDS011;68599;49.142;9.124;2023-11-19T13:50:53;2.00;;;0.50;;
79173;SDS011;68599;49.142;9.124;2023-11-19T13:55:48;0.90;;;0.40;;
79173;SDS011;68599;49.142;9.124;2023-11-19T13:58:14;1.70;;;0.50;;
79173;SDS011;68599;49.142;9.124;2023-11-19T14:00:42;2.90;;;0.40;;
79173;SDS011;68599;49.142;9.124;2023-11-19T14:03:09;1.90;;;0.50;;
79173;SDS011;68599;49.142;9.124;2023-11-19T14:05:38;1.60;;;0.50;;
79173;SDS011;68599;49.142;9.124;2023-11-19T14:08:07;1.00;;;0.40;;
79173;SDS011;68599;49.142;9.124;2023-11-19T14:10:51;1.40;;;0.60;;
79173;SDS011;68599;49.142;9.124;2023-11-19T14:13:18;1.30;;;0.50;;
79173;SDS011;68599;49.142;9.124;2023-11-19T14:15:45;2.50;;;0.50;;
79173;SDS011;68599;49.142;9.124;2023-11-19T14:18:16;2.30;;;1.30;;
79173;SDS011;68599;49.142;9.124;2023-11-19T14:20:43;1.90;;;0.80;;
79173;SDS011;68599;49.142;9.124;2023-11-19T14:23:10;3.00;;;1.40;;
79173;SDS011;68599;49.142;9.124;2023-11-19T14:25:37;1.10;;;0.50;;
79173;SDS011;68599;49.142;9.124;2023-11-19T14:28:04;3.10;;;0.80;;
79173;SDS011;68599;49.142;9.124;2023-11-19T14:30:32;2.70;;;0.70;;
79173;SDS011;68599;49.142;9.124;2023-11-19T14:33:00;0.90;;;0.50;;
79173;SDS011;68599;49.142;9.124;2023-11-19T14:35:27;0.80;;;0.30;;
79173;SDS011;68599;49.142;9.124;2023-11-19T14:37:56;1.70;;;0.20;;
79173;SDS011;68599;49.142;9.124;2023-11-19T14:40:23;1.30;;;0.50;;
79173;SDS011;68599;49.142;9.124;2023-11-19T14:43:08;2.60;;;0.30;;
79173;SDS011;68599;49.142;9.124;2023-11-19T14:45:37;1.20;;;0.40;;
79173;SDS011;68599;49.142;9.124;2023-11-19T14:48:14;3.60;;;0.40;;
79173;SDS011;68599;49.142;9.124;2023-11-19T14:53:08;1.70;;;0.50;;
79173;SDS011;68599;49.142;9.124;2023-11-19T14:55:35;1.20;;;0.40;;
79173;SDS011;68599;49.142;9.124;2023-11-19T14:58:02;0.30;;;0.10;;
79173;SDS011;68599;49.142;9.124;2023-11-19T15:00:36;2.40;;;0.50;;
79173;SDS011;68599;49.142;9.124;2023-11-19T15:03:03;1.80;;;0.40;;
79173;SDS011;68599;49.142;9.124;2023-11-19T15:05:30;0.40;;;0.20;;
79173;SDS011;68599;49.142;9.124;2023-11-19T15:07:56;1.40;;;0.40;;
79173;SDS011;68599;49.142;9.124;2023-11-19T15:10:23;1.50;;;0.50;;
79173;SDS011;68599;49.142;9.124;2023-11-19T15:12:51;1.90;;;0.50;;
79173;SDS011;68599;49.142;9.124;2023-11-19T15:15:20;1.10;;;0.50;;
79173;SDS011;68599;49.142;9.124;2023-11-19T15:17:50;0.90;;;0.40;;
79173;SDS011;68599;49.142;9.124;2023-11-19T15:20:16;1.30;;;0.30;;
79173;SDS011;68599;49.142;9.124;2023-11-19T15:22:45;1.20;;;0.50;;
79173;SDS011;68599;49.142;9.124;2023-11-19T15:25:12;0.90;;;0.20;;
79173;SDS011;68599;49.142;9.124;2023-11-19T15:27:39;1.70;;;0.70;;
79173;SDS011;68599;49.142;9.124;2023-11-19T15:30:06;3.10;;;0.90;;
79173;SDS011;68599;49.142;9.124;2023-11-19T15:32:37;3.10;;;0.30;;
79173;SDS011;68599;49.142;9.124;2023-11-19T15:35:04;0.90;;;0.30;;
79173;SDS011;68599;49.142;9.124;2023-11-19T15:37:34;1.20;;;0.30;;
79173;SDS011;68599;49.142;9.124;2023-11-19T15:40:01;1.80;;;0.50;;
79173;SDS011;68599;49.142;9.124;2023-11-19T15:42:30;1.20;;;0.50;;
79173;SDS011;68599;49.142;9.124;2023-11-19T15:44:57;1.90;;;0.60;;
79173;SDS011;68599;49.142;9.124;2023-11-19T15:47:23;1.30;;;0.50;;